sensor_id;sensor_type;location;lat;lon;timestamp;temperature;humidity
1700;DHT22;847;48.058;7.810;2022-07-06T00:00:49;19.10;83.00
1700;DHT22;847;48.058;7.810;2022-07-06T00:03:15;18.90;84.10
1700;DHT22;847;48.058;7.810;2022-07-06T00:05:42;18.90;84.30
1700;DHT22;847;48.058;7.810;2022-07-06T00:08:10;18.90;84.30
1700;DHT22;847;48.058;7.810;2022-07-06T00:10:37;18.30;86.90
1700;DHT22;847;48.058;7.810;2022-07-06T00:13:03;18.20;87.60
1700;DHT22;847;48.058;7.810;2022-07-06T00:15:30;18.30;87.10
1700;DHT22;847;48.058;7.810;2022-07-06T00:17:57;18.30;86.70
1700;DHT22;847;48.058;7.810;2022-07-06T00:20:23;18.40;86.80
1700;DHT22;847;48.058;7.810;2022-07-06T00:22:50;18.50;86.50
1700;DHT22;847;48.058;7.810;2022-07-06T00:25:18;18.50;86.30
1700;DHT22;847;48.058;7.810;2022-07-06T00:27:45;18.50;86.20
1700;DHT22;847;48.058;7.810;2022-07-06T00:30:12;18.50;85.70
1700;DHT22;847;48.058;7.810;2022-07-06T00:32:39;18.50;85.90
1700;DHT22;847;48.058;7.810;2022-07-06T00:35:06;18.60;85.70
1700;DHT22;847;48.058;7.810;2022-07-06T00:37:33;18.70;85.60
1700;DHT22;847;48.058;7.810;2022-07-06T00:40:00;18.70;85.50
1700;DHT22;847;48.058;7.810;2022-07-06T00:42:28;18.60;85.90
1700;DHT22;847;48.058;7.810;2022-07-06T00:44:54;18.50;86.20
1700;DHT22;847;48.058;7.810;2022-07-06T00:47:21;18.40;86.10
1700;DHT22;847;48.058;7.810;2022-07-06T00:49:48;18.50;86.20
1700;DHT22;847;48.058;7.810;2022-07-06T00:52:33;18.40;85.90
1700;DHT22;847;48.058;7.810;2022-07-06T00:54:59;18.30;86.90
1700;DHT22;847;48.058;7.810;2022-07-06T00:57:29;18.30;87.20
1700;DHT22;847;48.058;7.810;2022-07-06T00:59:56;18.40;86.50
1700;DHT22;847;48.058;7.810;2022-07-06T01:02:23;18.30;86.70
1700;DHT22;847;48.058;7.810;2022-07-06T01:04:49;18.30;86.80
1700;DHT22;847;48.058;7.810;2022-07-06T01:07:16;18.40;86.50
1700;DHT22;847;48.058;7.810;2022-07-06T01:09:43;18.30;86.80
1700;DHT22;847;48.058;7.810;2022-07-06T01:12:10;18.20;87.20
1700;DHT22;847;48.058;7.810;2022-07-06T01:14:38;18.30;87.30
1700;DHT22;847;48.058;7.810;2022-07-06T01:17:05;18.20;87.20
1700;DHT22;847;48.058;7.810;2022-07-06T01:19:33;18.10;87.90
1700;DHT22;847;48.058;7.810;2022-07-06T01:22:02;18.00;88.10
1700;DHT22;847;48.058;7.810;2022-07-06T01:24:28;18.00;88.10
1700;DHT22;847;48.058;7.810;2022-07-06T01:26:55;17.70;88.60
1700;DHT22;847;48.058;7.810;2022-07-06T01:29:22;17.50;89.40
1700;DHT22;847;48.058;7.810;2022-07-06T01:31:50;17.60;89.50
1700;DHT22;847;48.058;7.810;2022-07-06T01:34:17;17.60;89.70
1700;DHT22;847;48.058;7.810;2022-07-06T01:36:45;17.40;89.90
1700;DHT22;847;48.058;7.810;2022-07-06T01:39:13;17.50;89.80
1700;DHT22;847;48.058;7.810;2022-07-06T01:41:40;17.60;89.60
1700;DHT22;847;48.058;7.810;2022-07-06T01:44:07;17.50;89.80
1700;DHT22;847;48.058;7.810;2022-07-06T01:46:34;17.40;90.10
1700;DHT22;847;48.058;7.810;2022-07-06T01:49:01;17.30;90.40
1700;DHT22;847;48.058;7.810;2022-07-06T01:51:28;17.40;90.40
1700;DHT22;847;48.058;7.810;2022-07-06T01:53:54;17.50;90.00
1700;DHT22;847;48.058;7.810;2022-07-06T01:56:23;17.30;90.10
1700;DHT22;847;48.058;7.810;2022-07-06T01:58:49;17.40;90.40
1700;DHT22;847;48.058;7.810;2022-07-06T02:01:18;17.30;90.30
1700;DHT22;847;48.058;7.810;2022-07-06T02:03:45;17.30;90.30
1700;DHT22;847;48.058;7.810;2022-07-06T02:06:12;17.10;90.60
1700;DHT22;847;48.058;7.810;2022-07-06T02:08:41;17.00;91.50
1700;DHT22;847;48.058;7.810;2022-07-06T02:11:09;16.80;91.30
1700;DHT22;847;48.058;7.810;2022-07-06T02:13:37;16.80;91.70
1700;DHT22;847;48.058;7.810;2022-07-06T02:16:04;16.80;91.60
1700;DHT22;847;48.058;7.810;2022-07-06T02:18:31;16.80;91.60
1700;DHT22;847;48.058;7.810;2022-07-06T02:20:58;16.70;91.70
1700;DHT22;847;48.058;7.810;2022-07-06T02:23:24;16.70;91.80
1700;DHT22;847;48.058;7.810;2022-07-06T02:25:52;16.60;92.00
1700;DHT22;847;48.058;7.810;2022-07-06T02:28:18;16.70;92.20
1700;DHT22;847;48.058;7.810;2022-07-06T02:30:46;16.70;92.20
1700;DHT22;847;48.058;7.810;2022-07-06T02:33:13;16.80;91.90
1700;DHT22;847;48.058;7.810;2022-07-06T02:35:40;16.80;91.60
1700;DHT22;847;48.058;7.810;2022-07-06T02:38:08;16.90;91.20
1700;DHT22;847;48.058;7.810;2022-07-06T02:40:35;16.90;91.30
1700;DHT22;847;48.058;7.810;2022-07-06T02:43:02;17.00;91.20
1700;DHT22;847;48.058;7.810;2022-07-06T02:45:29;16.90;91.00
1700;DHT22;847;48.058;7.810;2022-07-06T02:47:57;16.80;91.40
1700;DHT22;847;48.058;7.810;2022-07-06T02:50:24;16.80;91.30
1700;DHT22;847;48.058;7.810;2022-07-06T02:52:51;16.80;91.40
1700;DHT22;847;48.058;7.810;2022-07-06T02:55:18;16.80;91.50
1700;DHT22;847;48.058;7.810;2022-07-06T02:57:44;16.70;91.60
1700;DHT22;847;48.058;7.810;2022-07-06T03:00:12;16.70;91.70
1700;DHT22;847;48.058;7.810;2022-07-06T03:02:39;16.60;91.80
1700;DHT22;847;48.058;7.810;2022-07-06T03:05:08;16.60;92.10
1700;DHT22;847;48.058;7.810;2022-07-06T03:07:34;16.60;91.90
1700;DHT22;847;48.058;7.810;2022-07-06T03:10:01;16.50;92.30
1700;DHT22;847;48.058;7.810;2022-07-06T03:12:28;16.40;92.00
1700;DHT22;847;48.058;7.810;2022-07-06T03:14:55;16.40;92.80
1700;DHT22;847;48.058;7.810;2022-07-06T03:17:21;16.50;92.40
1700;DHT22;847;48.058;7.810;2022-07-06T03:19:48;16.60;91.80
1700;DHT22;847;48.058;7.810;2022-07-06T03:22:16;16.60;91.90
1700;DHT22;847;48.058;7.810;2022-07-06T03:24:43;16.50;91.60
1700;DHT22;847;48.058;7.810;2022-07-06T03:27:10;16.60;91.70
1700;DHT22;847;48.058;7.810;2022-07-06T03:29:36;16.60;91.60
1700;DHT22;847;48.058;7.810;2022-07-06T03:32:03;16.50;91.10
1700;DHT22;847;48.058;7.810;2022-07-06T03:34:30;16.10;92.20
1700;DHT22;847;48.058;7.810;2022-07-06T03:36:57;16.10;92.90
1700;DHT22;847;48.058;7.810;2022-07-06T03:39:25;16.00;93.30
1700;DHT22;847;48.058;7.810;2022-07-06T03:41:52;15.90;93.50
1700;DHT22;847;48.058;7.810;2022-07-06T03:44:18;16.00;93.10
1700;DHT22;847;48.058;7.810;2022-07-06T03:46:45;16.10;92.80
1700;DHT22;847;48.058;7.810;2022-07-06T03:49:12;16.10;93.10
1700;DHT22;847;48.058;7.810;2022-07-06T03:51:38;16.20;92.70
1700;DHT22;847;48.058;7.810;2022-07-06T03:54:05;16.10;92.70
1700;DHT22;847;48.058;7.810;2022-07-06T03:56:33;15.90;93.10
1700;DHT22;847;48.058;7.810;2022-07-06T03:59:02;16.00;93.30
1700;DHT22;847;48.058;7.810;2022-07-06T04:01:29;16.10;93.10
1700;DHT22;847;48.058;7.810;2022-07-06T04:03:56;16.10;92.80
1700;DHT22;847;48.058;7.810;2022-07-06T04:06:23;16.00;93.10
1700;DHT22;847;48.058;7.810;2022-07-06T04:08:50;15.90;93.60
1700;DHT22;847;48.058;7.810;2022-07-06T04:11:17;15.70;94.50
1700;DHT22;847;48.058;7.810;2022-07-06T04:13:45;15.40;95.60
1700;DHT22;847;48.058;7.810;2022-07-06T04:16:12;15.50;95.80
1700;DHT22;847;48.058;7.810;2022-07-06T04:18:39;15.60;95.70
1700;DHT22;847;48.058;7.810;2022-07-06T04:21:06;15.80;95.00
1700;DHT22;847;48.058;7.810;2022-07-06T04:23:33;15.80;94.70
1700;DHT22;847;48.058;7.810;2022-07-06T04:25:59;15.90;94.80
1700;DHT22;847;48.058;7.810;2022-07-06T04:28:26;16.10;94.70
1700;DHT22;847;48.058;7.810;2022-07-06T04:30:54;16.10;94.50
1700;DHT22;847;48.058;7.810;2022-07-06T04:33:21;16.10;94.50
1700;DHT22;847;48.058;7.810;2022-07-06T04:35:48;16.20;94.00
1700;DHT22;847;48.058;7.810;2022-07-06T04:38:15;16.20;93.70
1700;DHT22;847;48.058;7.810;2022-07-06T04:40:42;16.10;93.60
1700;DHT22;847;48.058;7.810;2022-07-06T04:43:11;16.20;92.80
1700;DHT22;847;48.058;7.810;2022-07-06T04:45:38;16.30;93.00
1700;DHT22;847;48.058;7.810;2022-07-06T04:48:06;16.30;92.10
1700;DHT22;847;48.058;7.810;2022-07-06T04:50:33;16.30;91.60
1700;DHT22;847;48.058;7.810;2022-07-06T04:53:00;16.30;91.90
1700;DHT22;847;48.058;7.810;2022-07-06T04:55:27;16.40;92.20
1700;DHT22;847;48.058;7.810;2022-07-06T04:57:54;16.60;91.30
1700;DHT22;847;48.058;7.810;2022-07-06T05:00:20;16.60;91.00
1700;DHT22;847;48.058;7.810;2022-07-06T05:02:47;16.80;90.50
1700;DHT22;847;48.058;7.810;2022-07-06T05:05:15;16.80;89.70
1700;DHT22;847;48.058;7.810;2022-07-06T05:07:42;16.80;89.40
1700;DHT22;847;48.058;7.810;2022-07-06T05:10:10;16.70;89.80
1700;DHT22;847;48.058;7.810;2022-07-06T05:12:37;16.60;90.10
1700;DHT22;847;48.058;7.810;2022-07-06T05:15:06;16.60;90.90
1700;DHT22;847;48.058;7.810;2022-07-06T05:17:33;16.80;90.90
1700;DHT22;847;48.058;7.810;2022-07-06T05:19:59;16.80;90.40
1700;DHT22;847;48.058;7.810;2022-07-06T05:22:28;16.80;90.40
1700;DHT22;847;48.058;7.810;2022-07-06T05:24:55;16.80;90.30
1700;DHT22;847;48.058;7.810;2022-07-06T05:27:22;16.80;90.70
1700;DHT22;847;48.058;7.810;2022-07-06T05:29:49;16.80;91.50
1700;DHT22;847;48.058;7.810;2022-07-06T05:32:16;16.70;91.80
1700;DHT22;847;48.058;7.810;2022-07-06T05:34:42;16.50;92.50
1700;DHT22;847;48.058;7.810;2022-07-06T05:37:09;16.50;93.10
1700;DHT22;847;48.058;7.810;2022-07-06T05:39:37;16.50;93.60
1700;DHT22;847;48.058;7.810;2022-07-06T05:42:04;16.50;93.40
1700;DHT22;847;48.058;7.810;2022-07-06T05:44:32;16.50;94.20
1700;DHT22;847;48.058;7.810;2022-07-06T05:46:59;16.70;94.50
1700;DHT22;847;48.058;7.810;2022-07-06T05:49:39;16.80;94.40
1700;DHT22;847;48.058;7.810;2022-07-06T05:52:23;16.80;93.00
1700;DHT22;847;48.058;7.810;2022-07-06T05:54:51;16.80;93.20
1700;DHT22;847;48.058;7.810;2022-07-06T05:57:18;16.90;93.30
1700;DHT22;847;48.058;7.810;2022-07-06T05:59:45;16.90;93.50
1700;DHT22;847;48.058;7.810;2022-07-06T06:02:11;16.90;92.40
1700;DHT22;847;48.058;7.810;2022-07-06T06:04:38;17.10;92.20
1700;DHT22;847;48.058;7.810;2022-07-06T06:07:05;17.20;91.60
1700;DHT22;847;48.058;7.810;2022-07-06T06:09:31;17.30;91.30
1700;DHT22;847;48.058;7.810;2022-07-06T06:11:59;17.30;90.60
1700;DHT22;847;48.058;7.810;2022-07-06T06:14:26;17.50;89.70
1700;DHT22;847;48.058;7.810;2022-07-06T06:16:53;17.60;89.60
1700;DHT22;847;48.058;7.810;2022-07-06T06:19:20;17.60;90.00
1700;DHT22;847;48.058;7.810;2022-07-06T06:21:46;17.60;89.90
1700;DHT22;847;48.058;7.810;2022-07-06T06:24:13;17.60;89.60
1700;DHT22;847;48.058;7.810;2022-07-06T06:26:40;17.60;89.50
1700;DHT22;847;48.058;7.810;2022-07-06T06:29:08;17.70;89.70
1700;DHT22;847;48.058;7.810;2022-07-06T06:31:35;17.70;90.40
1700;DHT22;847;48.058;7.810;2022-07-06T06:34:02;17.80;89.10
1700;DHT22;847;48.058;7.810;2022-07-06T06:36:29;17.90;89.70
1700;DHT22;847;48.058;7.810;2022-07-06T06:38:56;17.80;89.70
1700;DHT22;847;48.058;7.810;2022-07-06T06:41:23;18.00;89.30
1700;DHT22;847;48.058;7.810;2022-07-06T06:43:49;18.00;90.20
1700;DHT22;847;48.058;7.810;2022-07-06T06:46:17;18.00;88.70
1700;DHT22;847;48.058;7.810;2022-07-06T06:48:44;18.10;88.10
1700;DHT22;847;48.058;7.810;2022-07-06T06:51:11;18.10;87.70
1700;DHT22;847;48.058;7.810;2022-07-06T06:53:37;18.30;87.60
1700;DHT22;847;48.058;7.810;2022-07-06T06:56:04;18.40;86.60
1700;DHT22;847;48.058;7.810;2022-07-06T06:58:31;18.50;86.00
1700;DHT22;847;48.058;7.810;2022-07-06T07:00:58;18.50;86.40
1700;DHT22;847;48.058;7.810;2022-07-06T07:03:26;18.50;86.50
1700;DHT22;847;48.058;7.810;2022-07-06T07:05:53;18.60;85.40
1700;DHT22;847;48.058;7.810;2022-07-06T07:08:19;18.60;86.60
1700;DHT22;847;48.058;7.810;2022-07-06T07:10:46;18.60;86.90
1700;DHT22;847;48.058;7.810;2022-07-06T07:13:13;18.50;86.80
1700;DHT22;847;48.058;7.810;2022-07-06T07:15:39;18.60;86.60
1700;DHT22;847;48.058;7.810;2022-07-06T07:18:06;18.80;85.90
1700;DHT22;847;48.058;7.810;2022-07-06T07:20:34;18.70;85.80
1700;DHT22;847;48.058;7.810;2022-07-06T07:23:01;18.90;85.80
1700;DHT22;847;48.058;7.810;2022-07-06T07:25:28;19.00;84.30
1700;DHT22;847;48.058;7.810;2022-07-06T07:27:55;19.10;84.30
1700;DHT22;847;48.058;7.810;2022-07-06T07:30:22;19.20;84.30
1700;DHT22;847;48.058;7.810;2022-07-06T07:33:19;19.20;83.20
1700;DHT22;847;48.058;7.810;2022-07-06T07:35:47;19.30;83.10
1700;DHT22;847;48.058;7.810;2022-07-06T07:38:14;19.20;83.80
1700;DHT22;847;48.058;7.810;2022-07-06T07:40:40;19.20;84.00
1700;DHT22;847;48.058;7.810;2022-07-06T07:43:07;19.20;84.20
1700;DHT22;847;48.058;7.810;2022-07-06T07:45:34;19.40;83.90
1700;DHT22;847;48.058;7.810;2022-07-06T07:48:00;19.40;82.10
1700;DHT22;847;48.058;7.810;2022-07-06T07:50:27;19.50;81.80
1700;DHT22;847;48.058;7.810;2022-07-06T07:52:56;19.60;81.90
1700;DHT22;847;48.058;7.810;2022-07-06T07:55:23;19.70;81.30
1700;DHT22;847;48.058;7.810;2022-07-06T07:57:49;19.70;80.80
1700;DHT22;847;48.058;7.810;2022-07-06T08:00:16;19.80;81.90
1700;DHT22;847;48.058;7.810;2022-07-06T08:02:43;19.80;81.30
1700;DHT22;847;48.058;7.810;2022-07-06T08:05:10;19.80;81.90
1700;DHT22;847;48.058;7.810;2022-07-06T08:07:39;19.80;81.10
1700;DHT22;847;48.058;7.810;2022-07-06T08:10:08;19.80;80.60
1700;DHT22;847;48.058;7.810;2022-07-06T08:12:36;19.90;82.20
1700;DHT22;847;48.058;7.810;2022-07-06T08:15:03;20.00;81.70
1700;DHT22;847;48.058;7.810;2022-07-06T08:17:30;20.00;79.90
1700;DHT22;847;48.058;7.810;2022-07-06T08:19:57;20.00;80.60
1700;DHT22;847;48.058;7.810;2022-07-06T08:22:24;20.00;80.00
1700;DHT22;847;48.058;7.810;2022-07-06T08:24:52;20.10;79.80
1700;DHT22;847;48.058;7.810;2022-07-06T08:27:20;20.20;80.70
1700;DHT22;847;48.058;7.810;2022-07-06T08:29:47;20.30;80.90
1700;DHT22;847;48.058;7.810;2022-07-06T08:32:14;20.40;80.20
1700;DHT22;847;48.058;7.810;2022-07-06T08:34:40;20.40;80.20
1700;DHT22;847;48.058;7.810;2022-07-06T08:37:09;20.60;80.50
1700;DHT22;847;48.058;7.810;2022-07-06T08:39:36;20.70;80.10
1700;DHT22;847;48.058;7.810;2022-07-06T08:42:03;20.70;78.50
1700;DHT22;847;48.058;7.810;2022-07-06T08:44:32;20.70;79.20
1700;DHT22;847;48.058;7.810;2022-07-06T08:47:04;20.80;79.40
1700;DHT22;847;48.058;7.810;2022-07-06T08:49:31;20.70;79.80
1700;DHT22;847;48.058;7.810;2022-07-06T08:52:00;20.90;78.70
1700;DHT22;847;48.058;7.810;2022-07-06T08:54:29;20.80;77.90
1700;DHT22;847;48.058;7.810;2022-07-06T08:56:56;20.90;78.20
1700;DHT22;847;48.058;7.810;2022-07-06T08:59:24;20.90;78.60
1700;DHT22;847;48.058;7.810;2022-07-06T09:01:53;20.90;77.70
1700;DHT22;847;48.058;7.810;2022-07-06T09:04:22;21.00;78.90
1700;DHT22;847;48.058;7.810;2022-07-06T09:06:49;21.00;78.50
1700;DHT22;847;48.058;7.810;2022-07-06T09:09:19;21.10;79.20
1700;DHT22;847;48.058;7.810;2022-07-06T09:11:46;21.20;77.20
1700;DHT22;847;48.058;7.810;2022-07-06T09:14:13;21.20;78.20
1700;DHT22;847;48.058;7.810;2022-07-06T09:16:40;21.20;78.10
1700;DHT22;847;48.058;7.810;2022-07-06T09:19:10;21.40;78.30
1700;DHT22;847;48.058;7.810;2022-07-06T09:21:37;21.50;78.00
1700;DHT22;847;48.058;7.810;2022-07-06T09:24:07;21.60;77.60
1700;DHT22;847;48.058;7.810;2022-07-06T09:26:34;21.50;78.00
1700;DHT22;847;48.058;7.810;2022-07-06T09:29:02;21.70;79.10
1700;DHT22;847;48.058;7.810;2022-07-06T09:31:29;21.70;77.00
1700;DHT22;847;48.058;7.810;2022-07-06T09:33:57;21.80;78.00
1700;DHT22;847;48.058;7.810;2022-07-06T09:36:50;21.90;75.70
1700;DHT22;847;48.058;7.810;2022-07-06T09:39:23;21.90;76.10
1700;DHT22;847;48.058;7.810;2022-07-06T09:41:53;21.90;74.90
1700;DHT22;847;48.058;7.810;2022-07-06T09:44:25;21.90;75.40
1700;DHT22;847;48.058;7.810;2022-07-06T09:46:53;21.90;73.80
1700;DHT22;847;48.058;7.810;2022-07-06T09:49:22;22.00;74.70
1700;DHT22;847;48.058;7.810;2022-07-06T09:51:52;22.00;74.00
1700;DHT22;847;48.058;7.810;2022-07-06T09:54:19;22.20;74.50
1700;DHT22;847;48.058;7.810;2022-07-06T09:56:48;22.30;73.50
1700;DHT22;847;48.058;7.810;2022-07-06T09:59:18;22.20;73.00
1700;DHT22;847;48.058;7.810;2022-07-06T10:01:47;22.30;74.30
1700;DHT22;847;48.058;7.810;2022-07-06T10:04:14;22.30;72.40
1700;DHT22;847;48.058;7.810;2022-07-06T10:06:44;22.40;73.40
1700;DHT22;847;48.058;7.810;2022-07-06T10:09:13;22.30;73.10
1700;DHT22;847;48.058;7.810;2022-07-06T10:11:42;22.40;74.40
1700;DHT22;847;48.058;7.810;2022-07-06T10:14:10;22.50;75.10
1700;DHT22;847;48.058;7.810;2022-07-06T10:16:39;22.60;72.70
1700;DHT22;847;48.058;7.810;2022-07-06T10:19:07;22.60;72.60
1700;DHT22;847;48.058;7.810;2022-07-06T10:21:36;22.50;73.80
1700;DHT22;847;48.058;7.810;2022-07-06T10:24:05;22.70;72.10
1700;DHT22;847;48.058;7.810;2022-07-06T10:26:34;22.70;70.20
1700;DHT22;847;48.058;7.810;2022-07-06T10:29:01;22.70;73.00
1700;DHT22;847;48.058;7.810;2022-07-06T10:31:29;22.80;72.50
1700;DHT22;847;48.058;7.810;2022-07-06T10:33:57;22.80;72.90
1700;DHT22;847;48.058;7.810;2022-07-06T10:36:26;23.00;72.90
1700;DHT22;847;48.058;7.810;2022-07-06T10:38:53;23.10;71.70
1700;DHT22;847;48.058;7.810;2022-07-06T10:41:30;23.10;73.20
1700;DHT22;847;48.058;7.810;2022-07-06T10:43:58;23.30;71.20
1700;DHT22;847;48.058;7.810;2022-07-06T10:46:40;23.30;68.70
1700;DHT22;847;48.058;7.810;2022-07-06T10:49:15;23.10;69.90
1700;DHT22;847;48.058;7.810;2022-07-06T10:51:42;23.20;69.70
1700;DHT22;847;48.058;7.810;2022-07-06T10:54:09;23.30;67.80
1700;DHT22;847;48.058;7.810;2022-07-06T10:56:38;23.20;66.00
1700;DHT22;847;48.058;7.810;2022-07-06T10:59:10;23.10;67.90
1700;DHT22;847;48.058;7.810;2022-07-06T11:01:38;23.20;68.50
1700;DHT22;847;48.058;7.810;2022-07-06T11:04:06;23.20;66.90
1700;DHT22;847;48.058;7.810;2022-07-06T11:06:35;23.20;66.50
1700;DHT22;847;48.058;7.810;2022-07-06T11:09:04;23.20;69.10
1700;DHT22;847;48.058;7.810;2022-07-06T11:11:39;23.30;68.60
1700;DHT22;847;48.058;7.810;2022-07-06T11:14:09;23.40;67.20
1700;DHT22;847;48.058;7.810;2022-07-06T11:16:39;23.20;68.60
1700;DHT22;847;48.058;7.810;2022-07-06T11:19:08;23.20;68.00
1700;DHT22;847;48.058;7.810;2022-07-06T11:21:37;23.30;68.70
1700;DHT22;847;48.058;7.810;2022-07-06T11:24:06;23.40;68.30
1700;DHT22;847;48.058;7.810;2022-07-06T11:26:34;23.60;69.60
1700;DHT22;847;48.058;7.810;2022-07-06T11:29:03;23.80;70.40
1700;DHT22;847;48.058;7.810;2022-07-06T11:31:33;24.00;68.40
1700;DHT22;847;48.058;7.810;2022-07-06T11:34:02;24.00;67.30
1700;DHT22;847;48.058;7.810;2022-07-06T11:36:29;23.90;66.80
1700;DHT22;847;48.058;7.810;2022-07-06T11:38:56;23.90;67.80
1700;DHT22;847;48.058;7.810;2022-07-06T11:41:22;24.00;66.80
1700;DHT22;847;48.058;7.810;2022-07-06T11:43:49;23.90;66.50
1700;DHT22;847;48.058;7.810;2022-07-06T11:46:25;23.90;65.40
1700;DHT22;847;48.058;7.810;2022-07-06T11:48:54;23.80;68.30
1700;DHT22;847;48.058;7.810;2022-07-06T11:51:24;24.00;67.30
1700;DHT22;847;48.058;7.810;2022-07-06T11:53:52;24.10;67.60
1700;DHT22;847;48.058;7.810;2022-07-06T11:56:20;24.10;66.40
1700;DHT22;847;48.058;7.810;2022-07-06T11:58:51;24.10;66.40
1700;DHT22;847;48.058;7.810;2022-07-06T12:01:18;24.20;67.80
1700;DHT22;847;48.058;7.810;2022-07-06T12:03:46;24.00;66.80
1700;DHT22;847;48.058;7.810;2022-07-06T12:06:15;24.00;68.80
1700;DHT22;847;48.058;7.810;2022-07-06T12:08:45;23.90;67.00
1700;DHT22;847;48.058;7.810;2022-07-06T12:11:18;23.90;68.10
1700;DHT22;847;48.058;7.810;2022-07-06T12:13:45;24.10;68.00
1700;DHT22;847;48.058;7.810;2022-07-06T12:16:13;24.00;67.90
1700;DHT22;847;48.058;7.810;2022-07-06T12:18:42;24.00;69.90
1700;DHT22;847;48.058;7.810;2022-07-06T12:21:11;23.90;67.80
1700;DHT22;847;48.058;7.810;2022-07-06T12:23:40;24.00;69.10
1700;DHT22;847;48.058;7.810;2022-07-06T12:26:09;24.20;67.40
1700;DHT22;847;48.058;7.810;2022-07-06T12:28:36;24.20;65.40
1700;DHT22;847;48.058;7.810;2022-07-06T12:31:03;24.10;67.20
1700;DHT22;847;48.058;7.810;2022-07-06T12:33:30;24.20;67.20
1700;DHT22;847;48.058;7.810;2022-07-06T12:35:57;24.30;68.50
1700;DHT22;847;48.058;7.810;2022-07-06T12:38:24;24.30;67.90
1700;DHT22;847;48.058;7.810;2022-07-06T12:40:51;24.40;67.70
1700;DHT22;847;48.058;7.810;2022-07-06T12:43:37;24.50;68.60
1700;DHT22;847;48.058;7.810;2022-07-06T12:46:23;24.30;67.60
1700;DHT22;847;48.058;7.810;2022-07-06T12:48:52;24.10;67.80
1700;DHT22;847;48.058;7.810;2022-07-06T12:51:19;24.20;67.70
1700;DHT22;847;48.058;7.810;2022-07-06T12:53:46;24.30;67.70
1700;DHT22;847;48.058;7.810;2022-07-06T12:56:14;24.50;69.70
1700;DHT22;847;48.058;7.810;2022-07-06T12:58:56;24.40;68.30
1700;DHT22;847;48.058;7.810;2022-07-06T13:01:23;24.50;67.70
1700;DHT22;847;48.058;7.810;2022-07-06T13:03:54;24.60;67.30
1700;DHT22;847;48.058;7.810;2022-07-06T13:06:31;24.60;66.00
1700;DHT22;847;48.058;7.810;2022-07-06T13:08:58;24.70;65.60
1700;DHT22;847;48.058;7.810;2022-07-06T13:11:25;24.70;67.00
1700;DHT22;847;48.058;7.810;2022-07-06T13:13:52;24.70;66.70
1700;DHT22;847;48.058;7.810;2022-07-06T13:16:20;24.70;67.30
1700;DHT22;847;48.058;7.810;2022-07-06T13:18:49;24.60;67.60
1700;DHT22;847;48.058;7.810;2022-07-06T13:21:16;24.60;66.30
1700;DHT22;847;48.058;7.810;2022-07-06T13:23:43;24.60;66.80
1700;DHT22;847;48.058;7.810;2022-07-06T13:26:10;24.70;67.30
1700;DHT22;847;48.058;7.810;2022-07-06T13:28:36;24.70;67.00
1700;DHT22;847;48.058;7.810;2022-07-06T13:31:03;24.90;67.90
1700;DHT22;847;48.058;7.810;2022-07-06T13:33:33;24.90;67.10
1700;DHT22;847;48.058;7.810;2022-07-06T13:36:00;24.80;66.50
1700;DHT22;847;48.058;7.810;2022-07-06T13:38:27;24.70;68.40
1700;DHT22;847;48.058;7.810;2022-07-06T13:40:54;25.00;66.20
1700;DHT22;847;48.058;7.810;2022-07-06T13:43:21;25.10;65.40
1700;DHT22;847;48.058;7.810;2022-07-06T13:45:48;25.20;66.00
1700;DHT22;847;48.058;7.810;2022-07-06T13:48:15;25.20;65.80
1700;DHT22;847;48.058;7.810;2022-07-06T13:50:43;25.00;66.40
1700;DHT22;847;48.058;7.810;2022-07-06T13:53:10;24.80;67.10
1700;DHT22;847;48.058;7.810;2022-07-06T13:55:36;24.60;67.00
1700;DHT22;847;48.058;7.810;2022-07-06T13:58:03;24.60;67.50
1700;DHT22;847;48.058;7.810;2022-07-06T14:00:30;24.60;66.40
1700;DHT22;847;48.058;7.810;2022-07-06T14:02:58;24.70;66.60
1700;DHT22;847;48.058;7.810;2022-07-06T14:05:24;24.80;66.00
1700;DHT22;847;48.058;7.810;2022-07-06T14:07:52;25.00;65.40
1700;DHT22;847;48.058;7.810;2022-07-06T14:10:19;25.00;65.10
1700;DHT22;847;48.058;7.810;2022-07-06T14:12:46;25.10;65.30
1700;DHT22;847;48.058;7.810;2022-07-06T14:15:13;25.00;65.50
1700;DHT22;847;48.058;7.810;2022-07-06T14:17:39;25.10;66.50
1700;DHT22;847;48.058;7.810;2022-07-06T14:20:07;25.00;66.00
1700;DHT22;847;48.058;7.810;2022-07-06T14:22:34;25.10;65.70
1700;DHT22;847;48.058;7.810;2022-07-06T14:25:02;25.20;64.70
1700;DHT22;847;48.058;7.810;2022-07-06T14:27:31;25.10;64.70
1700;DHT22;847;48.058;7.810;2022-07-06T14:29:57;25.20;66.00
1700;DHT22;847;48.058;7.810;2022-07-06T14:32:24;25.10;65.90
1700;DHT22;847;48.058;7.810;2022-07-06T14:34:51;25.30;64.60
1700;DHT22;847;48.058;7.810;2022-07-06T14:37:18;25.30;65.20
1700;DHT22;847;48.058;7.810;2022-07-06T14:39:44;25.30;64.90
1700;DHT22;847;48.058;7.810;2022-07-06T14:42:13;25.00;63.80
1700;DHT22;847;48.058;7.810;2022-07-06T14:44:39;24.90;65.20
1700;DHT22;847;48.058;7.810;2022-07-06T14:47:06;25.00;64.50
1700;DHT22;847;48.058;7.810;2022-07-06T14:49:33;25.00;65.30
1700;DHT22;847;48.058;7.810;2022-07-06T14:52:00;25.00;63.90
1700;DHT22;847;48.058;7.810;2022-07-06T14:54:26;25.00;64.40
1700;DHT22;847;48.058;7.810;2022-07-06T14:56:53;25.00;64.70
1700;DHT22;847;48.058;7.810;2022-07-06T14:59:21;25.00;65.70
1700;DHT22;847;48.058;7.810;2022-07-06T15:01:48;25.00;65.40
1700;DHT22;847;48.058;7.810;2022-07-06T15:04:15;25.00;64.20
1700;DHT22;847;48.058;7.810;2022-07-06T15:06:42;25.00;65.90
1700;DHT22;847;48.058;7.810;2022-07-06T15:09:08;25.00;65.90
1700;DHT22;847;48.058;7.810;2022-07-06T15:11:35;25.00;63.40
1700;DHT22;847;48.058;7.810;2022-07-06T15:14:02;24.90;64.70
1700;DHT22;847;48.058;7.810;2022-07-06T15:16:33;25.00;63.70
1700;DHT22;847;48.058;7.810;2022-07-06T15:18:59;25.00;65.60
1700;DHT22;847;48.058;7.810;2022-07-06T15:21:26;25.00;63.50
1700;DHT22;847;48.058;7.810;2022-07-06T15:23:53;25.00;63.20
1700;DHT22;847;48.058;7.810;2022-07-06T15:26:20;24.90;63.80
1700;DHT22;847;48.058;7.810;2022-07-06T15:28:46;24.80;63.90
1700;DHT22;847;48.058;7.810;2022-07-06T15:31:13;24.70;63.30
1700;DHT22;847;48.058;7.810;2022-07-06T15:33:41;24.60;63.40
1700;DHT22;847;48.058;7.810;2022-07-06T15:36:08;24.30;64.40
1700;DHT22;847;48.058;7.810;2022-07-06T15:38:36;24.30;63.30
1700;DHT22;847;48.058;7.810;2022-07-06T15:41:03;24.20;64.70
1700;DHT22;847;48.058;7.810;2022-07-06T15:43:30;24.30;63.10
1700;DHT22;847;48.058;7.810;2022-07-06T15:45:59;24.30;63.90
1700;DHT22;847;48.058;7.810;2022-07-06T15:48:26;24.40;63.00
1700;DHT22;847;48.058;7.810;2022-07-06T15:50:55;24.30;62.60
1700;DHT22;847;48.058;7.810;2022-07-06T15:53:22;24.30;61.80
1700;DHT22;847;48.058;7.810;2022-07-06T15:55:49;24.20;60.20
1700;DHT22;847;48.058;7.810;2022-07-06T15:58:17;24.20;60.60
1700;DHT22;847;48.058;7.810;2022-07-06T16:00:43;24.30;61.30
1700;DHT22;847;48.058;7.810;2022-07-06T16:03:10;24.00;61.40
1700;DHT22;847;48.058;7.810;2022-07-06T16:05:37;23.90;60.40
1700;DHT22;847;48.058;7.810;2022-07-06T16:08:05;23.90;59.60
1700;DHT22;847;48.058;7.810;2022-07-06T16:10:32;23.80;59.40
1700;DHT22;847;48.058;7.810;2022-07-06T16:12:59;23.70;60.60
1700;DHT22;847;48.058;7.810;2022-07-06T16:15:26;23.70;60.60
1700;DHT22;847;48.058;7.810;2022-07-06T16:17:53;23.70;59.30
1700;DHT22;847;48.058;7.810;2022-07-06T16:20:20;23.60;58.30